Terminal Aerodrome Forecast
Issued by NWS

Current Version | Previous Version | Text Only | Print | Product List | Glossary On
Versions: 1 2 3 4 5 6 7 8 9 10 11 12
000
FTUS44 KTSA 211140
TAFXNA
TAF
KXNA 211140Z 2112/2212 17012G19KT P6SM BKN025 WS020/19040KT
     FM211500 17014G22KT P6SM SCT015 BKN025
     FM212000 18015G25KT P6SM SCT025 BKN035
     FM220300 17012G20KT P6SM VCTS BKN025CB
     FM220400 VRB10G20KT 3SM TSRA BKN025CB
      TEMPO 2204/2206 VRB20G35KT 1SM +TSRA BKN015CB
     FM220600 28014KT 5SM -TSRA BKN025CB
     FM220900 33011KT 4SM -RA BR BKN010=

USA.gov is the U.S. government's official web portal to all federal, state and local government web resources and services.